Time;durP1;ratioP1;P1;durP2;ratioP2;P2;SDS_P1;SDS_P2;PMS_P1;PMS_P2;Temp;Humidity;BMP_temperature;BMP_pressure;BME280_temperature;BME280_humidity;BME280_pressure;Samples;Min_cycle;Max_cycle;Signal;HPM_P1;HPM_P2
2022/04/26 03:36:43;;;;;;;2.70;2.50;;;;;;;8.01;100.00;98706.25;5152766;27;20049;-55
2022/04/26 03:39:10;;;;;;;2.42;2.22;;;;;;;8.02;100.00;98705.09;5152725;27;20055;-57
2022/04/26 03:41:37;;;;;;;4.32;2.28;;;;;;;8.09;100.00;98717.31;5152509;27;20421;-57
2022/04/26 03:44:03;;;;;;;2.63;2.42;;;;;;;8.02;100.00;98724.22;5152740;27;20050;-56
2022/04/26 03:46:29;;;;;;;2.47;2.28;;;;;;;8.06;100.00;98721.56;5152464;27;20055;-56
2022/04/26 03:48:56;;;;;;;3.28;2.97;;;;;;;8.13;100.00;98721.72;5152789;27;20046;-56
2022/04/26 03:51:23;;;;;;;3.45;2.67;;;;;;;8.22;100.00;98721.50;5152614;27;20050;-56
2022/04/26 03:53:49;;;;;;;2.33;2.13;;;;;;;8.22;100.00;98725.00;5152539;27;20046;-54
2022/04/26 03:56:15;;;;;;;3.40;2.40;;;;;;;8.29;100.00;98735.28;5152365;27;20049;-56
2022/04/26 03:58:41;;;;;;;3.88;2.58;;;;;;;8.27;100.00;98740.34;5152517;27;20057;-55
2022/04/26 04:01:07;;;;;;;3.25;2.95;;;;;;;8.25;100.00;98753.53;5152747;27;20123;-55
2022/04/26 04:03:37;;;;;;;3.05;2.80;;;;;;;8.26;100.00;98752.38;5152607;27;20050;-57
2022/04/26 04:06:04;;;;;;;3.72;2.45;;;;;;;8.36;100.00;98760.00;5152319;27;20429;-54
2022/04/26 04:08:31;;;;;;;3.10;2.45;;;;;;;8.44;100.00;98758.25;5152437;27;20054;-53
2022/04/26 04:10:57;;;;;;;3.85;2.60;;;;;;;8.53;100.00;98772.50;5152383;27;20046;-54
2022/04/26 04:13:23;;;;;;;3.08;2.78;;;;;;;8.45;100.00;98782.47;5152341;27;20047;-58
2022/04/26 04:15:49;;;;;;;3.40;3.10;;;;;;;8.41;100.00;98783.56;5152310;27;20062;-54
2022/04/26 04:21:01;;;;;;;4.35;2.67;;;;;;;8.49;100.00;98790.72;5152143;27;20095;-54
2022/04/26 04:23:27;;;;;;;3.72;2.72;;;;;;;8.52;100.00;98794.69;5151848;27;20042;-53
2022/04/26 04:25:54;;;;;;;3.45;2.83;;;;;;;8.61;100.00;98790.59;5151848;27;20055;-57
2022/04/26 04:28:20;;;;;;;7.40;3.25;;;;;;;8.66;100.00;98801.25;5151569;27;20521;-56
2022/04/26 04:30:46;;;;;;;3.53;2.83;;;;;;;8.78;100.00;98802.22;5151671;27;20532;-54
2022/04/26 04:33:12;;;;;;;3.20;2.97;;;;;;;8.80;100.00;98811.66;5151861;27;20047;-56
2022/04/26 04:35:38;;;;;;;3.08;2.72;;;;;;;8.85;100.00;98813.28;5151780;27;20070;-57
2022/04/26 04:38:05;;;;;;;4.13;3.05;;;;;;;8.91;100.00;98822.78;5151859;27;20070;-56
2022/04/26 04:40:31;;;;;;;3.15;2.88;;;;;;;8.94;100.00;98831.06;5151419;27;20047;-53
2022/04/26 04:42:58;;;;;;;4.32;2.92;;;;;;;8.98;100.00;98838.53;5151640;27;20058;-53
2022/04/26 04:45:24;;;;;;;3.10;2.80;;;;;;;8.98;100.00;98842.06;5150985;27;20058;-54
2022/04/26 04:47:50;;;;;;;5.03;2.80;;;;;;;9.06;100.00;98838.28;5151596;27;20055;-56
2022/04/26 04:50:16;;;;;;;3.42;2.92;;;;;;;9.15;100.00;98849.78;5151133;27;20420;-54
2022/04/26 04:52:43;;;;;;;3.35;3.03;;;;;;;9.24;100.00;98851.53;5151234;27;20087;-57
2022/04/26 04:55:09;;;;;;;2.83;2.63;;;;;;;9.26;100.00;98854.66;5130433;28;20058;-57
2022/04/26 04:57:36;;;;;;;5.90;3.72;;;;;;;9.30;100.00;98855.53;5130640;28;20043;-55
2022/04/26 05:00:04;;;;;;;3.10;2.80;;;;;;;9.22;100.00;98862.81;5130696;28;20077;-53
2022/04/26 05:02:31;;;;;;;3.58;3.08;;;;;;;9.03;100.00;98858.19;5130641;28;20051;-54
2022/04/26 05:04:57;;;;;;;3.08;2.72;;;;;;;9.16;100.00;98856.06;5130718;27;20491;-54
2022/04/26 05:07:24;;;;;;;3.13;2.78;;;;;;;9.37;100.00;98847.47;5129951;28;20058;-54
2022/04/26 05:09:51;;;;;;;2.90;2.70;;;;;;;9.60;100.00;98848.25;5130959;27;20050;-53
2022/04/26 05:12:19;;;;;;;4.28;2.63;;;;;;;9.86;100.00;98863.09;5130756;28;20047;-53
2022/04/26 05:14:45;;;;;;;3.00;2.75;;;;;;;10.04;100.00;98866.13;5130608;27;20130;-53
2022/04/26 05:17:12;;;;;;;3.10;2.80;;;;;;;10.21;100.00;98865.59;5130194;27;20051;-54
2022/04/26 05:19:38;;;;;;;5.53;3.53;;;;;;;10.46;100.00;98852.28;5130265;27;20051;-56
2022/04/26 05:22:08;;;;;;;9.18;3.67;;;;;;;11.52;100.00;98829.13;5130046;28;20051;-56
2022/04/26 05:24:56;;;;;;;10.20;4.05;;;;;;;12.10;100.00;98699.28;5130071;27;20520;-56
2022/04/26 05:27:23;;;;;;;7.43;3.55;;;;;;;12.64;100.00;98471.19;5130346;27;20047;-55
2022/04/26 05:29:50;;;;;;;7.50;3.50;;;;;;;12.87;100.00;98301.00;5129396;28;20107;-54
2022/04/26 05:32:20;;;;;;;12.02;3.80;;;;;;;13.18;100.00;98133.31;5129924;28;20070;-59
2022/04/26 05:34:46;;;;;;;6.45;3.05;;;;;;;13.33;100.00;98027.44;5129874;28;20079;-53
2022/04/26 05:37:12;;;;;;;24.55;4.82;;;;;;;13.25;100.00;97946.13;5130086;28;20144;-59
2022/04/26 05:39:38;;;;;;;20.60;6.32;;;;;;;13.30;100.00;97975.97;5129870;28;20513;-59
2022/04/26 05:42:05;;;;;;;28.33;5.07;;;;;;;13.81;100.00;97915.50;5129878;28;20047;-56
2022/04/26 05:44:31;;;;;;;13.77;4.05;;;;;;;13.73;100.00;97781.81;5129878;28;20062;-52
2022/04/26 05:46:57;;;;;;;26.88;5.65;;;;;;;14.03;100.00;97814.00;5129976;28;20054;-55
2022/04/26 05:49:24;;;;;;;35.53;6.18;;;;;;;14.29;100.00;97759.94;5129765;28;20058;-57
2022/04/26 05:51:50;;;;;;;38.58;6.28;;;;;;;14.34;100.00;97707.84;5129726;28;20100;-55
2022/04/26 05:54:16;;;;;;;4.22;3.15;;;;;;;14.06;100.00;97708.41;5129661;28;20047;-53
2022/04/26 05:56:43;;;;;;;3.20;2.92;;;;;;;13.65;100.00;97759.13;5130767;27;20444;-58
2022/04/26 05:59:09;;;;;;;7.97;3.22;;;;;;;13.38;100.00;97836.28;5133562;28;20047;-56
2022/04/26 06:01:35;;;;;;;9.05;3.63;;;;;;;13.13;100.00;97905.41;5132874;28;20058;-55
2022/04/26 06:04:01;;;;;;;12.13;3.15;;;;;;;12.87;100.00;97957.16;5133184;28;20051;-58
2022/04/26 06:06:28;;;;;;;7.72;3.10;;;;;;;12.76;100.00;98049.19;5133085;28;20563;-55
2022/04/26 06:08:54;;;;;;;3.95;2.97;;;;;;;12.59;100.00;98076.44;5133092;28;20055;-61
2022/04/26 06:11:21;;;;;;;4.53;3.75;;;;;;;12.50;100.00;98157.84;5133208;28;20058;-61
2022/04/26 06:13:47;;;;;;;7.20;3.20;;;;;;;12.42;100.00;98166.09;5133367;28;20833;-61
2022/04/26 06:16:14;;;;;;;3.30;3.00;;;;;;;12.34;100.00;98208.56;5133134;28;20078;-55
2022/04/26 06:18:42;;;;;;;8.95;3.15;;;;;;;12.27;100.00;98199.56;5133015;28;20074;-54
2022/04/26 06:21:08;;;;;;;3.50;2.83;;;;;;;12.33;100.00;98189.69;5133340;28;20043;-56
2022/04/26 06:23:35;;;;;;;4.90;2.97;;;;;;;12.36;100.00;98186.16;5132986;28;20047;-52
2022/04/26 06:26:01;;;;;;;3.25;2.95;;;;;;;12.44;100.00;98176.69;5133013;28;20055;-57
2022/04/26 06:28:28;;;;;;;3.38;2.80;;;;;;;12.64;100.00;98174.22;5132772;28;20445;-55
2022/04/26 06:30:54;;;;;;;3.80;2.70;;;;;;;12.61;100.00;98095.28;5132970;28;20074;-55
2022/04/26 06:33:21;;;;;;;3.97;2.80;;;;;;;12.16;100.00;98073.19;5132564;28;20089;-51
2022/04/26 06:35:47;;;;;;;3.13;2.83;;;;;;;11.95;100.00;98194.97;5132326;28;20047;-53
2022/04/26 06:38:13;;;;;;;9.35;3.28;;;;;;;12.02;100.00;98272.63;5132394;28;20058;-57
2022/04/26 06:40:40;;;;;;;4.90;2.60;;;;;;;12.42;100.00;98300.78;5132378;28;20055;-56
2022/04/26 06:43:06;;;;;;;4.20;2.42;;;;;;;12.80;100.00;98226.78;5132691;28;20047;-54
2022/04/26 06:45:33;;;;;;;4.22;3.13;;;;;;;13.08;100.00;98065.41;5132583;28;20487;-56
2022/04/26 06:47:59;;;;;;;2.58;2.38;;;;;;;13.06;100.00;97955.78;5132973;28;20047;-53
2022/04/26 06:50:25;;;;;;;2.60;2.40;;;;;;;12.95;100.00;97928.38;5132408;28;20150;-56
2022/04/26 06:52:52;;;;;;;3.50;2.78;;;;;;;13.02;100.00;97979.78;5132530;28;20053;-55
2022/04/26 06:55:18;;;;;;;3.65;2.80;;;;;;;13.30;100.00;97986.97;5132090;28;20099;-56
2022/04/26 06:57:46;;;;;;;4.63;3.10;;;;;;;13.22;100.00;97891.88;5132262;28;20414;-57
2022/04/26 07:00:13;;;;;;;4.97;2.90;;;;;;;13.16;100.00;97941.13;5132095;28;20047;-55
2022/04/26 07:02:40;;;;;;;3.58;3.17;;;;;;;13.71;100.00;97924.69;5132296;28;20054;-57
2022/04/26 07:05:07;;;;;;;4.65;3.40;;;;;;;14.48;100.00;97778.47;5131952;28;20055;-55
2022/04/26 07:07:33;;;;;;;2.85;2.55;;;;;;;14.64;100.00;97634.38;5131952;27;20047;-55
2022/04/26 07:10:00;;;;;;;3.17;2.70;;;;;;;14.46;100.00;97603.63;5131943;28;20058;-56
2022/04/26 07:12:26;;;;;;;4.22;2.90;;;;;;;14.35;100.00;97639.72;5131957;28;20051;-56
2022/04/26 07:14:53;;;;;;;2.90;2.70;;;;;;;14.24;100.00;97626.16;5132167;28;20167;-55
2022/04/26 07:17:19;;;;;;;3.40;2.80;;;;;;;13.92;100.00;97628.81;5132131;28;20046;-53
2022/04/26 07:19:45;;;;;;;3.00;2.80;;;;;;;13.73;100.00;97650.44;5132234;28;20070;-56
2022/04/26 07:22:11;;;;;;;6.30;3.17;;;;;;;13.99;100.00;97673.50;5131776;28;20051;-54
2022/04/26 07:24:37;;;;;;;7.38;2.80;;;;;;;13.88;100.00;97686.72;5132198;28;20058;-56
2022/04/26 07:27:03;;;;;;;6.65;3.28;;;;;;;13.92;100.00;97731.50;5131506;28;20047;-55
2022/04/26 07:29:30;;;;;;;3.17;2.85;;;;;;;14.00;100.00;97713.66;5132251;28;20051;-57
2022/04/26 07:31:56;;;;;;;3.00;2.80;;;;;;;13.53;100.00;97677.94;5131646;28;20043;-60
2022/04/26 07:34:23;;;;;;;3.50;2.88;;;;;;;13.28;100.00;97787.66;5131811;28;20043;-61
2022/04/26 07:36:51;;;;;;;3.15;2.90;;;;;;;13.10;100.00;97842.94;5131492;28;20059;-59
2022/04/26 07:39:18;;;;;;;4.53;3.28;;;;;;;12.79;100.00;97944.66;5131564;28;20055;-59
2022/04/26 07:41:45;;;;;;;4.18;3.10;;;;;;;12.59;100.00;98004.97;5131523;28;20142;-59
2022/04/26 07:44:12;;;;;;;4.78;3.13;;;;;;;12.48;100.00;98056.50;5131410;28;20051;-56
2022/04/26 07:46:38;;;;;;;11.65;4.43;;;;;;;12.28;100.00;98093.94;5131564;28;20401;-57
2022/04/26 07:49:06;;;;;;;3.22;2.92;;;;;;;12.23;100.00;98142.66;5131484;28;20418;-57
2022/04/26 07:51:32;;;;;;;6.80;3.20;;;;;;;12.28;100.00;98174.41;5131554;28;20043;-59
2022/04/26 07:53:59;;;;;;;4.05;2.97;;;;;;;12.39;100.00;98210.09;5131198;28;20047;-56
2022/04/26 07:56:27;;;;;;;3.03;2.75;;;;;;;12.37;100.00;98157.50;5131521;28;20417;-56
2022/04/26 07:58:53;;;;;;;3.83;3.20;;;;;;;12.41;100.00;98192.03;5131200;28;20467;-56
2022/04/26 08:01:19;;;;;;;4.20;2.85;;;;;;;12.64;100.00;98122.75;5131640;28;20066;-59
2022/04/26 08:03:46;;;;;;;6.40;3.05;;;;;;;12.84;100.00;98017.72;5130937;28;20050;-57
2022/04/26 08:06:12;;;;;;;2.70;2.50;;;;;;;13.03;100.00;97933.78;5131089;28;20513;-58
2022/04/26 08:08:39;;;;;;;5.90;2.78;;;;;;;13.21;100.00;97886.81;5130944;28;20051;-56
2022/04/26 08:11:06;;;;;;;3.88;3.40;;;;;;;13.30;100.00;97801.81;5131114;28;20133;-55
2022/04/26 08:13:33;;;;;;;3.47;2.80;;;;;;;13.41;100.00;97796.91;5131140;28;20054;-53
2022/04/26 08:15:59;;;;;;;3.38;3.08;;;;;;;13.70;100.00;97741.38;5130970;28;20532;-51
2022/04/26 08:18:25;;;;;;;4.93;3.10;;;;;;;14.05;100.00;97702.13;5131092;27;20051;-55
2022/04/26 08:20:52;;;;;;;4.80;3.17;;;;;;;14.07;100.00;97655.66;5130469;28;20055;-54
2022/04/26 08:23:18;;;;;;;5.00;3.45;;;;;;;13.84;100.00;97653.75;5131197;28;20050;-53
2022/04/26 08:28:37;;;;;;;3.30;3.00;;;;;;;13.05;100.00;97739.63;5093660;28;20100;-55
2022/04/26 08:31:05;;;;;;;3.75;2.90;;;;;;;12.72;100.00;97791.53;5130980;28;20063;-54
2022/04/26 08:33:34;;;;;;;3.67;2.95;;;;;;;12.46;100.00;97847.22;5130761;28;20580;-54
2022/04/26 08:36:00;;;;;;;4.80;2.90;;;;;;;12.25;100.00;97930.66;5130804;28;20104;-53
2022/04/26 08:38:27;;;;;;;3.13;2.83;;;;;;;12.09;100.00;97996.34;5130717;28;20093;-55
2022/04/26 08:40:54;;;;;;;3.28;2.97;;;;;;;12.02;100.00;98041.09;5130831;28;20505;-52
2022/04/26 08:43:20;;;;;;;5.15;3.47;;;;;;;11.97;100.00;98097.25;5130664;28;20047;-53
2022/04/26 08:45:47;;;;;;;3.58;3.28;;;;;;;11.95;100.00;98148.28;5130645;28;20058;-54
2022/04/26 08:51:03;;;;;;;4.45;3.60;;;;;;;11.77;100.00;98173.81;5131019;28;20054;-50
2022/04/26 08:53:32;;;;;;;9.77;3.20;;;;;;;11.62;100.00;98237.38;5130695;28;20058;-54
2022/04/26 08:56:01;;;;;;;3.65;3.35;;;;;;;11.68;100.00;98257.75;5130339;28;20058;-55
2022/04/26 08:58:31;;;;;;;5.82;3.25;;;;;;;11.78;100.00;98222.03;5130890;28;20490;-55
2022/04/26 09:01:05;;;;;;;4.38;3.22;;;;;;;11.76;100.00;98182.44;5130462;28;20062;-54
2022/04/26 09:03:32;;;;;;;4.45;3.25;;;;;;;11.86;100.00;98183.59;5130676;28;20108;-52
2022/04/26 09:06:04;;;;;;;4.25;3.03;;;;;;;11.95;100.00;98132.56;5130614;28;20059;-52
2022/04/26 09:08:31;;;;;;;3.35;2.92;;;;;;;12.13;100.00;98137.19;5130320;28;20510;-51
2022/04/26 09:10:58;;;;;;;9.27;3.58;;;;;;;12.23;100.00;98098.69;5130245;28;20050;-55
2022/04/26 09:13:24;;;;;;;5.57;3.28;;;;;;;12.37;100.00;98064.06;5130564;28;20051;-56
2022/04/26 09:15:54;;;;;;;4.07;3.67;;;;;;;12.37;100.00;98000.84;5130001;28;20069;-53
2022/04/26 09:18:21;;;;;;;3.53;3.03;;;;;;;12.33;100.00;97945.91;5129866;28;20084;-54
2022/04/26 09:20:49;;;;;;;4.75;3.65;;;;;;;12.40;100.00;97939.56;5130149;28;20058;-53
2022/04/26 09:23:18;;;;;;;3.75;3.38;;;;;;;12.54;100.00;97894.66;5130061;28;20100;-52
2022/04/26 09:25:45;;;;;;;4.50;3.33;;;;;;;12.50;100.00;97869.19;5130180;28;20047;-55
2022/04/26 09:28:21;;;;;;;4.43;3.10;;;;;;;12.49;100.00;97871.13;5130248;28;20140;-50
2022/04/26 09:30:47;;;;;;;4.20;3.17;;;;;;;12.72;100.00;97846.53;5131760;27;20058;-53
2022/04/26 09:33:31;;;;;;;3.10;2.80;;;;;;;12.98;100.00;97810.47;5133594;28;20047;-54
2022/04/26 09:36:00;;;;;;;3.03;2.58;;;;;;;13.07;100.00;97761.22;5133633;28;20082;-55
2022/04/26 09:38:29;;;;;;;2.92;2.60;;;;;;;13.14;100.00;97726.13;5133423;28;20096;-51
2022/04/26 09:41:00;;;;;;;4.03;2.78;;;;;;;13.25;100.00;97692.19;5133761;28;20047;-53
2022/04/26 09:43:26;;;;;;;3.30;2.72;;;;;;;13.35;100.00;97649.94;5133827;28;20046;-53
2022/04/26 09:45:55;;;;;;;3.42;2.58;;;;;;;13.36;100.00;97627.50;5133355;28;20055;-51
2022/04/26 09:48:25;;;;;;;5.22;2.72;;;;;;;13.28;100.00;97636.28;5133555;28;20047;-54
2022/04/26 09:50:51;;;;;;;3.38;3.03;;;;;;;13.37;100.00;97642.81;5132987;28;20072;-53
2022/04/26 09:53:18;;;;;;;3.00;2.70;;;;;;;13.49;100.00;97629.63;5133465;28;20424;-53
2022/04/26 09:55:45;;;;;;;3.03;2.70;;;;;;;13.58;100.00;97638.88;5133148;28;20047;-53
2022/04/26 09:58:13;;;;;;;4.97;2.92;;;;;;;13.66;100.00;97606.47;5133438;28;20051;-53
2022/04/26 10:00:43;;;;;;;2.63;2.33;;;;;;;13.81;100.00;97604.22;5133077;28;20075;-53
2022/04/26 10:03:13;;;;;;;5.38;2.90;;;;;;;14.06;100.00;97603.72;5133111;28;20104;-54
2022/04/26 10:05:41;;;;;;;3.40;2.92;;;;;;;14.16;100.00;97607.44;5133130;28;20820;-52
2022/04/26 10:08:08;;;;;;;3.88;3.53;;;;;;;14.20;100.00;97608.94;5132761;28;20055;-52
2022/04/26 10:10:34;;;;;;;3.63;3.00;;;;;;;14.16;100.00;97610.19;5133142;28;20055;-53
2022/04/26 10:15:48;;;;;;;2.88;2.67;;;;;;;14.11;100.00;97626.03;5133120;28;20151;-53
2022/04/26 10:18:29;;;;;;;3.50;3.13;;;;;;;13.98;100.00;97625.13;5132926;28;20104;-50
2022/04/26 10:20:55;;;;;;;3.72;3.30;;;;;;;13.81;100.00;97621.53;5132794;28;20092;-51
2022/04/26 10:23:21;;;;;;;5.78;3.63;;;;;;;13.78;100.00;97627.13;5132770;28;20481;-51
2022/04/26 10:26:23;;;;;;;3.83;3.42;;;;;;;13.94;100.00;97623.66;5132983;28;20050;-54
2022/04/26 10:28:50;;;;;;;7.95;3.35;;;;;;;13.88;100.00;97626.91;5132888;28;20107;-55
2022/04/26 10:31:18;;;;;;;4.03;3.50;;;;;;;13.88;100.00;97640.66;5132641;28;20071;-54
2022/04/26 10:33:44;;;;;;;4.97;3.70;;;;;;;13.97;100.00;97648.38;5132762;28;20051;-53
2022/04/26 10:36:35;;;;;;;3.75;3.33;;;;;;;14.12;100.00;97643.34;5132587;28;20086;-50
2022/04/26 10:39:20;;;;;;;3.40;3.10;;;;;;;13.98;100.00;97633.41;5132677;28;20054;-52
2022/04/26 10:41:47;;;;;;;4.47;3.15;;;;;;;13.94;100.00;97635.44;5131782;27;20055;-54
2022/04/26 10:44:27;;;;;;;3.53;3.20;;;;;;;13.82;100.00;97634.09;5132435;28;20099;-52
2022/04/26 10:47:26;;;;;;;5.03;3.60;;;;;;;13.66;100.00;97645.03;5132603;28;20054;-54
2022/04/26 10:49:53;;;;;;;5.50;2.95;;;;;;;13.56;100.00;97648.75;5132257;28;20471;-53
2022/04/26 10:52:44;;;;;;;5.45;3.53;;;;;;;13.62;100.00;97647.06;5132490;28;20134;-51
2022/04/26 10:55:14;;;;;;;4.70;3.55;;;;;;;13.49;100.00;97657.16;5107419;28;20429;-53
2022/04/26 10:57:43;;;;;;;7.10;3.28;;;;;;;13.50;100.00;97654.00;5132066;28;20092;-51
2022/04/26 11:00:11;;;;;;;6.20;4.00;;;;;;;13.49;100.00;97662.66;5132320;28;20402;-54
2022/04/26 11:02:40;;;;;;;6.78;4.07;;;;;;;13.54;100.00;97679.47;5131942;28;20058;-55
2022/04/26 11:05:11;;;;;;;4.72;4.13;;;;;;;13.56;100.00;97666.09;5132361;28;20074;-55
2022/04/26 11:07:39;;;;;;;5.82;4.45;;;;;;;13.42;100.00;97672.59;5131987;28;20047;-51
2022/04/26 11:10:06;;;;;;;6.25;4.55;;;;;;;13.36;100.00;97668.00;5131868;28;20142;-55
2022/04/26 11:12:34;;;;;;;6.85;5.20;;;;;;;13.39;100.00;97675.41;5131922;28;20051;-52
2022/04/26 11:15:01;;;;;;;8.00;5.22;;;;;;;13.26;100.00;97685.47;5131973;28;20062;-53
2022/04/26 11:17:29;;;;;;;6.72;4.97;;;;;;;13.33;100.00;97702.66;5131884;28;20047;-53
2022/04/26 11:19:58;;;;;;;6.93;4.43;;;;;;;13.39;100.00;97712.00;5131928;28;20047;-51
2022/04/26 11:22:26;;;;;;;5.47;4.28;;;;;;;13.48;100.00;97713.41;5131992;28;20047;-52
2022/04/26 11:28:05;;;;;;;;;;;;;;;13.72;100.00;97723.22;5132269;28;20130;-54
2022/04/26 11:30:35;;;;;;;6.70;3.95;;;;;;;13.38;100.00;97680.16;5131998;28;19927;-53
2022/04/26 11:33:03;;;;;;;4.63;3.95;;;;;;;13.47;100.00;97693.38;5132058;28;20050;-51
2022/04/26 11:35:30;;;;;;;3.92;3.53;;;;;;;13.62;100.00;97682.88;5131494;28;20105;-53
2022/04/26 11:37:57;;;;;;;4.45;3.47;;;;;;;13.42;100.00;97680.09;5131475;28;20062;-54
2022/04/26 11:40:26;;;;;;;4.07;3.50;;;;;;;13.48;100.00;97692.16;5131726;28;20047;-56
2022/04/26 11:42:52;;;;;;;7.10;4.20;;;;;;;13.51;100.00;97683.06;5131596;28;20050;-52
2022/04/26 11:45:19;;;;;;;5.30;4.05;;;;;;;13.69;100.00;97702.03;5131733;28;20051;-51
2022/04/26 11:47:48;;;;;;;7.07;4.80;;;;;;;13.61;100.00;97700.59;5131333;28;20055;-53
2022/04/26 11:50:17;;;;;;;5.93;4.13;;;;;;;13.67;100.00;97703.66;5131337;28;20051;-53
2022/04/26 11:52:44;;;;;;;5.35;4.22;;;;;;;13.68;100.00;97711.50;5131210;28;20055;-53
2022/04/26 11:55:35;;;;;;;7.78;4.40;;;;;;;13.65;100.00;97695.81;5129954;27;20047;-54
2022/04/26 11:58:13;;;;;;;5.45;4.38;;;;;;;13.66;100.00;97705.63;5106035;28;20055;-53
2022/04/26 12:00:57;;;;;;;6.07;4.22;;;;;;;13.65;100.00;97699.34;5131173;28;20059;-54
2022/04/26 12:03:25;;;;;;;3.78;3.40;;;;;;;13.50;100.00;97694.53;5131453;28;20047;-53
2022/04/26 12:05:56;;;;;;;5.18;4.28;;;;;;;13.48;100.00;97692.16;5131012;28;20058;-51
2022/04/26 12:08:25;;;;;;;4.53;3.83;;;;;;;13.56;100.00;97687.31;5131256;28;20043;-54
2022/04/26 12:10:51;;;;;;;12.05;4.13;;;;;;;13.63;100.00;97687.97;5131241;28;20058;-53
2022/04/26 12:13:31;;;;;;;5.13;3.72;;;;;;;13.67;100.00;97684.38;5131540;28;20051;-55
2022/04/26 12:16:16;;;;;;;4.35;3.33;;;;;;;13.70;100.00;97694.56;5131083;28;20100;-55
2022/04/26 12:18:53;;;;;;;4.68;3.83;;;;;;;13.43;100.00;97692.66;5130949;28;20051;-54
2022/04/26 12:21:20;;;;;;;3.88;2.83;;;;;;;13.35;100.00;97710.47;5131077;28;20494;-53
2022/04/26 12:23:48;;;;;;;3.72;2.90;;;;;;;13.31;100.00;97705.03;5131116;28;20529;-52
2022/04/26 12:26:14;;;;;;;3.00;2.55;;;;;;;13.32;100.00;97692.81;5131075;28;20058;-55
2022/04/26 12:28:48;;;;;;;3.58;2.45;;;;;;;13.29;100.00;97698.41;5130788;28;20510;-55
2022/04/26 12:31:22;;;;;;;2.75;2.20;;;;;;;13.24;100.00;97698.84;5131173;28;20047;-54
2022/04/26 12:33:52;;;;;;;2.42;2.22;;;;;;;13.21;100.00;97699.69;5130853;28;20502;-52
2022/04/26 12:36:18;;;;;;;3.40;2.53;;;;;;;13.13;100.00;97699.03;5130674;28;20051;-54
2022/04/26 12:38:45;;;;;;;4.07;2.40;;;;;;;13.03;100.00;97697.19;5130824;28;20099;-53
2022/04/26 12:41:12;;;;;;;3.70;2.30;;;;;;;12.95;100.00;97704.78;5130854;28;20150;-55
2022/04/26 12:43:38;;;;;;;6.50;2.90;;;;;;;13.01;100.00;97702.34;5130658;28;20088;-53
2022/04/26 12:46:06;;;;;;;3.55;2.17;;;;;;;13.07;100.00;97701.47;5130840;28;20108;-55
2022/04/26 12:51:21;;;;;;;2.55;1.83;;;;;;;12.89;100.00;97696.22;5130541;28;20050;-54
2022/04/26 12:53:48;;;;;;;2.42;2.22;;;;;;;12.90;100.00;97703.31;5130226;28;20058;-54
2022/04/26 12:56:16;;;;;;;6.38;2.80;;;;;;;12.85;100.00;97703.75;5130327;28;20050;-56
2022/04/26 12:58:44;;;;;;;2.30;2.20;;;;;;;12.95;100.00;97702.03;5130441;28;20049;-54
2022/04/26 13:01:11;;;;;;;2.80;2.50;;;;;;;12.99;100.00;97704.72;5131017;28;20101;-55
2022/04/26 13:03:39;;;;;;;4.03;1.95;;;;;;;13.07;100.00;97700.69;5130728;28;20460;-52
2022/04/26 13:06:10;;;;;;;2.40;2.20;;;;;;;13.12;100.00;97698.22;5130513;27;20055;-51
2022/04/26 13:08:38;;;;;;;3.63;2.10;;;;;;;13.24;100.00;97685.09;5130539;28;20101;-53
2022/04/26 13:11:05;;;;;;;3.53;2.15;;;;;;;13.31;100.00;97683.03;5130415;28;20052;-57
2022/04/26 13:13:32;;;;;;;2.63;2.30;;;;;;;13.46;100.00;97688.28;5130624;28;20127;-58
2022/04/26 13:15:59;;;;;;;3.22;2.00;;;;;;;13.46;100.00;97696.53;5130331;28;20051;-58
2022/04/26 13:18:25;;;;;;;3.85;2.50;;;;;;;13.42;100.00;97693.84;5130352;28;20069;-58
2022/04/26 13:20:54;;;;;;;2.80;2.10;;;;;;;13.56;100.00;97701.88;5130037;28;20081;-59
2022/04/26 13:23:21;;;;;;;2.92;1.80;;;;;;;13.62;100.00;97716.69;5130027;28;20104;-59
2022/04/26 13:25:48;;;;;;;2.15;1.70;;;;;;;13.60;100.00;97746.66;5130489;28;20055;-59
2022/04/26 13:28:14;;;;;;;2.00;1.90;;;;;;;13.55;100.00;97771.13;5130367;28;20055;-59
2022/04/26 13:30:41;;;;;;;1.85;1.58;;;;;;;13.34;100.00;97777.75;5130165;28;20070;-59
2022/04/26 13:33:07;;;;;;;2.20;1.50;;;;;;;13.34;100.00;97762.00;5130388;28;20047;-59
2022/04/26 13:35:34;;;;;;;2.78;1.92;;;;;;;13.32;100.00;97742.38;5130031;28;20058;-59
2022/04/26 13:38:01;;;;;;;2.60;1.60;;;;;;;13.41;100.00;97730.84;5130233;28;20430;-59
2022/04/26 13:40:27;;;;;;;2.30;2.08;;;;;;;13.68;100.00;97730.00;5130229;28;20047;-59
2022/04/26 13:42:55;;;;;;;1.92;1.70;;;;;;;13.91;100.00;97751.22;5129872;28;20051;-59
2022/04/26 13:45:21;;;;;;;7.43;2.83;;;;;;;13.94;100.00;97755.91;5130107;28;20051;-59
2022/04/26 13:47:48;;;;;;;4.47;2.38;;;;;;;14.07;100.00;97743.81;5129906;28;20069;-59
2022/04/26 13:50:14;;;;;;;3.17;1.92;;;;;;;13.91;100.00;97771.28;5129935;28;20047;-59
2022/04/26 13:52:42;;;;;;;2.53;1.92;;;;;;;13.96;100.00;97743.25;5130172;28;20051;-59
2022/04/26 13:55:09;;;;;;;3.22;2.30;;;;;;;13.95;100.00;97714.13;5129860;28;20050;-59
2022/04/26 13:57:36;;;;;;;7.65;3.40;;;;;;;13.99;100.00;97714.84;5129828;28;20051;-59
2022/04/26 14:00:03;;;;;;;2.58;2.38;;;;;;;13.98;100.00;97720.78;5129972;28;20078;-59
2022/04/26 14:02:29;;;;;;;2.17;1.80;;;;;;;13.92;100.00;97734.25;5129811;28;20051;-59
2022/04/26 14:04:56;;;;;;;9.45;3.63;;;;;;;14.02;100.00;97691.94;5129698;28;20422;-59
2022/04/26 14:07:22;;;;;;;4.43;2.15;;;;;;;14.10;100.00;97722.94;5129662;28;20100;-59
2022/04/26 14:09:48;;;;;;;3.63;1.90;;;;;;;14.12;100.00;97753.56;5129747;28;20058;-59
2022/04/26 14:12:18;;;;;;;4.15;3.05;;;;;;;14.17;100.00;97733.81;5130045;28;20533;-60
2022/04/26 14:22:57;;;;;;;2.88;1.70;;;;;;;13.89;100.00;97765.41;5133485;28;20293;-59
2022/04/26 14:25:24;;;;;;;1.77;1.65;;;;;;;13.85;100.00;97770.22;5133324;28;20051;-60
2022/04/26 14:27:51;;;;;;;3.58;2.03;;;;;;;13.68;100.00;97802.38;5133087;28;20047;-60
2022/04/26 14:30:18;;;;;;;3.58;1.92;;;;;;;13.57;100.00;97791.53;5132928;28;20199;-59
2022/04/26 14:32:44;;;;;;;3.33;2.13;;;;;;;13.38;100.00;97776.47;5132921;28;20055;-59
2022/04/26 14:35:11;;;;;;;2.03;1.88;;;;;;;13.31;100.00;97757.34;5132715;28;20055;-59
2022/04/26 14:37:38;;;;;;;3.97;1.90;;;;;;;13.44;100.00;97748.50;5132862;28;20525;-60
2022/04/26 14:40:06;;;;;;;2.05;1.65;;;;;;;13.50;100.00;97758.63;5132841;28;20051;-60
2022/04/26 14:42:32;;;;;;;2.47;1.98;;;;;;;13.57;100.00;97754.97;5132711;28;20100;-60
2022/04/26 14:44:58;;;;;;;2.03;1.83;;;;;;;13.63;100.00;97764.31;5132749;28;20058;-60
2022/04/26 14:47:26;;;;;;;2.25;1.77;;;;;;;13.71;100.00;97787.00;5132858;28;20074;-59
2022/04/26 14:49:52;;;;;;;1.70;1.60;;;;;;;13.80;100.00;97823.81;5132819;28;20051;-57
2022/04/26 14:52:21;;;;;;;7.05;2.13;;;;;;;13.72;100.00;97860.91;5132691;28;20047;-59
2022/04/26 14:54:48;;;;;;;1.77;1.63;;;;;;;13.80;100.00;97834.06;5132790;28;20047;-59
2022/04/26 14:57:17;;;;;;;12.40;2.15;;;;;;;13.74;100.00;97838.47;5132629;28;20047;-59
2022/04/26 14:59:47;;;;;;;3.00;1.60;;;;;;;13.65;100.00;97817.75;5132684;28;20043;-60
2022/04/26 15:02:14;;;;;;;3.13;2.03;;;;;;;13.53;100.00;97817.53;5132599;28;20050;-59
2022/04/26 15:04:40;;;;;;;3.88;2.40;;;;;;;13.45;100.00;97783.06;5132519;28;20051;-60
2022/04/26 15:07:06;;;;;;;2.42;1.85;;;;;;;13.42;100.00;97790.97;5132372;28;20062;-59
2022/04/26 15:09:46;;;;;;;1.95;1.77;;;;;;;13.35;100.00;97787.56;5132430;28;20460;-60
2022/04/26 15:17:48;;;;;;;5.03;2.72;;;;;;;13.69;100.00;97753.56;5132733;28;20063;-59
2022/04/26 15:20:15;;;;;;;2.78;2.13;;;;;;;13.81;100.00;97753.75;5132166;28;20142;-60
2022/04/26 15:22:41;;;;;;;5.40;2.30;;;;;;;13.85;100.00;97759.97;5132390;28;20043;-60
2022/04/26 15:25:09;;;;;;;8.27;3.28;;;;;;;13.96;100.00;97757.03;5132137;28;20055;-59
2022/04/26 15:27:37;;;;;;;5.82;2.75;;;;;;;14.09;100.00;97762.69;5132292;28;20047;-59
2022/04/26 15:30:05;;;;;;;2.55;2.10;;;;;;;14.13;100.00;97791.75;5131885;28;20100;-60
2022/04/26 15:32:32;;;;;;;2.55;2.35;;;;;;;14.13;100.00;97802.78;5132296;28;20047;-60
2022/04/26 15:34:58;;;;;;;4.65;2.67;;;;;;;14.16;100.00;97825.97;5132190;28;20051;-60
2022/04/26 15:37:25;;;;;;;3.40;2.08;;;;;;;14.13;100.00;97822.06;5131934;28;20094;-60